createdAt,value
2019-02-05T00:01:23.520Z,57.60
2019-02-05T00:03:54.049Z,57.00
2019-02-05T00:06:23.642Z,57.00
2019-02-05T00:08:53.020Z,57.10
2019-02-05T00:11:22.470Z,57.10
2019-02-05T00:13:52.519Z,57.10
2019-02-05T00:16:21.882Z,57.10
2019-02-05T00:18:51.767Z,57.30
2019-02-05T00:21:21.218Z,57.30
2019-02-05T00:23:50.617Z,57.40
2019-02-05T00:26:19.926Z,57.40
2019-02-05T00:28:49.314Z,57.40
2019-02-05T00:31:18.682Z,57.40
2019-02-05T00:33:48.132Z,57.40
2019-02-05T00:36:17.518Z,57.30
2019-02-05T00:38:46.912Z,57.30
2019-02-05T00:41:16.320Z,57.20
2019-02-05T00:43:45.722Z,57.30
2019-02-05T00:46:15.176Z,57.10
2019-02-05T00:48:45.038Z,57.20
2019-02-05T00:51:14.420Z,57.10
2019-02-05T00:53:43.942Z,57.20
2019-02-05T00:56:17.718Z,57.20
2019-02-05T00:58:44.622Z,57.30
2019-02-05T01:01:15.504Z,57.20
2019-02-05T01:03:45.230Z,57.30
2019-02-05T01:06:14.789Z,57.40
2019-02-05T01:08:46.194Z,57.40
2019-02-05T01:11:15.609Z,57.30
2019-02-05T01:13:45.027Z,57.30
2019-02-05T01:16:14.569Z,57.30
2019-02-05T01:18:44.014Z,57.90
2019-02-05T01:21:16.330Z,57.30
2019-02-05T01:23:47.792Z,57.40
2019-02-05T01:26:28.707Z,57.50
2019-02-05T01:28:48.211Z,57.50
2019-02-05T01:31:18.039Z,57.60
2019-02-05T01:33:47.411Z,57.70
2019-02-05T01:36:16.826Z,57.70
2019-02-05T01:38:46.214Z,57.80
2019-02-05T01:51:41.339Z,57.70
2019-02-05T01:54:11.026Z,57.70
2019-02-05T01:56:41.065Z,57.90
2019-02-05T01:59:10.570Z,57.90
2019-02-05T02:01:39.879Z,57.90
2019-02-05T02:04:09.276Z,57.80
2019-02-05T02:06:38.722Z,57.80
2019-02-05T02:09:10.101Z,57.80
2019-02-05T02:11:39.721Z,57.80
2019-02-05T02:14:11.425Z,57.70
2019-02-05T02:16:41.155Z,57.70
2019-02-05T02:19:10.633Z,57.70
2019-02-05T02:21:40.021Z,57.70
2019-02-05T02:24:09.582Z,57.60
2019-02-05T02:26:38.934Z,57.70
2019-02-05T02:29:08.890Z,57.70
2019-02-05T02:31:38.370Z,57.70
2019-02-05T02:34:07.795Z,57.80
2019-02-05T02:36:44.237Z,57.70
2019-02-05T02:39:13.643Z,57.80
2019-02-05T02:41:43.118Z,57.70
2019-02-05T02:44:12.511Z,57.80
2019-02-05T02:46:41.875Z,57.70
2019-02-05T02:49:11.354Z,57.80
2019-02-05T02:51:41.195Z,57.90
2019-02-05T02:54:10.621Z,57.90
2019-02-05T02:56:40.031Z,58.00
2019-02-05T02:59:09.787Z,57.90
2019-02-05T03:01:39.082Z,58.00
2019-02-05T03:04:08.492Z,57.90
2019-02-05T03:06:38.185Z,57.90
2019-02-05T03:09:10.381Z,57.80
2019-02-05T03:11:39.810Z,57.80
2019-02-05T03:14:15.574Z,57.80
2019-02-05T03:16:45.015Z,57.70
2019-02-05T03:19:14.440Z,57.70
2019-02-05T03:21:44.066Z,57.70
2019-02-05T03:24:13.465Z,57.70
2019-02-05T03:26:42.882Z,57.50
2019-02-05T03:29:12.361Z,57.60
2019-02-05T03:31:41.764Z,57.60
2019-02-05T03:34:11.121Z,57.50
2019-02-05T03:36:40.591Z,57.60
2019-02-05T03:39:10.320Z,57.50
2019-02-05T03:41:39.725Z,57.60
2019-02-05T03:44:09.062Z,57.50
2019-02-05T03:46:38.524Z,57.50
2019-02-05T03:49:07.891Z,57.50
2019-02-05T03:52:19.464Z,57.40
2019-02-05T03:55:32.955Z,57.40
2019-02-05T03:59:01.507Z,57.40
2019-02-05T04:01:58.112Z,57.40
2019-02-05T04:05:14.660Z,57.50
2019-02-05T04:08:16.399Z,57.50
2019-02-05T04:11:09.480Z,57.50
2019-02-05T04:13:50.991Z,57.50
2019-02-05T04:16:44.114Z,57.40
2019-02-05T04:19:42.765Z,57.40
2019-02-05T04:22:37.575Z,57.50
2019-02-05T04:25:39.511Z,57.40
2019-02-05T04:28:59.678Z,57.50
2019-02-05T04:32:01.177Z,57.40
2019-02-05T04:34:44.796Z,57.50
2019-02-05T04:37:39.321Z,57.50
2019-02-05T04:41:01.436Z,57.70
2019-02-05T04:43:48.941Z,57.70
2019-02-05T04:46:51.061Z,57.60
2019-02-05T04:49:48.063Z,57.70
2019-02-05T04:52:44.584Z,57.90
2019-02-05T04:55:49.002Z,57.90
2019-02-05T04:59:08.297Z,58.10
2019-02-05T05:02:17.529Z,58.10
2019-02-05T05:05:29.027Z,58.00
2019-02-05T05:08:44.047Z,58.10
2019-02-05T05:11:13.793Z,58.00
2019-02-05T05:14:02.230Z,58.10
2019-02-05T05:16:31.658Z,58.60
2019-02-05T05:19:01.596Z,58.50
2019-02-05T05:21:31.085Z,58.40
2019-02-05T05:24:00.751Z,58.50
2019-02-05T05:26:30.284Z,58.50
2019-02-05T05:28:59.806Z,58.60
2019-02-05T05:31:29.494Z,58.60
2019-02-05T05:33:59.274Z,58.70
2019-02-05T05:36:29.795Z,59.10
2019-02-05T05:38:59.773Z,58.80
2019-02-05T05:41:29.251Z,58.80
2019-02-05T05:43:58.740Z,58.90
2019-02-05T05:46:29.299Z,58.90
2019-02-05T05:48:58.710Z,58.80
2019-02-05T05:51:28.385Z,58.90
2019-02-05T05:53:58.333Z,58.90
2019-02-05T05:56:27.836Z,58.80
2019-02-05T05:58:57.363Z,58.80
2019-02-05T06:01:27.035Z,58.70
2019-02-05T06:03:56.438Z,58.70
2019-02-05T06:06:25.959Z,58.70
2019-02-05T06:08:57.345Z,58.80
2019-02-05T06:11:26.758Z,58.80
2019-02-05T06:13:56.230Z,58.90
2019-02-05T06:16:25.938Z,58.90
2019-02-05T06:18:55.466Z,59.00
2019-02-05T06:21:26.995Z,59.10
2019-02-05T06:23:56.421Z,59.10
2019-02-05T06:26:25.741Z,59.00
2019-02-05T06:28:55.352Z,59.10
2019-02-05T06:31:24.744Z,59.00
2019-02-05T06:33:58.674Z,59.00
2019-02-05T06:36:28.058Z,58.90
2019-02-05T06:38:57.387Z,58.90
2019-02-05T06:41:26.745Z,58.90
2019-02-05T06:43:56.221Z,58.90
2019-02-05T06:46:25.661Z,58.90
2019-02-05T06:48:55.005Z,58.80
2019-02-05T06:51:24.389Z,58.90
2019-02-05T06:53:54.000Z,58.90
2019-02-05T06:56:23.715Z,59.00
2019-02-05T06:58:53.250Z,59.00
2019-02-05T07:01:23.766Z,59.00
2019-02-05T07:03:53.254Z,59.00
2019-02-05T07:06:22.902Z,59.00
2019-02-05T07:08:53.418Z,59.00
2019-02-05T07:11:23.347Z,59.00
2019-02-05T07:13:53.348Z,59.00
2019-02-05T07:16:22.830Z,59.00
2019-02-05T07:18:53.343Z,59.00
2019-02-05T07:21:22.821Z,59.10
2019-02-05T07:23:53.163Z,59.20
2019-02-05T07:26:22.860Z,59.10
2019-02-05T07:28:58.970Z,59.20
2019-02-05T07:31:25.511Z,59.20
2019-02-05T07:33:54.955Z,59.20
2019-02-05T07:36:24.463Z,59.20
2019-02-05T07:38:55.075Z,59.30
2019-02-05T07:41:26.443Z,59.30
2019-02-05T07:43:55.737Z,59.40
2019-02-05T07:46:25.264Z,59.50
2019-02-05T07:48:54.895Z,59.50
2019-02-05T07:51:24.429Z,59.50
2019-02-05T07:53:54.149Z,60.20
2019-02-05T07:56:24.081Z,59.50
2019-02-05T07:58:53.992Z,59.30
2019-02-05T08:01:23.412Z,59.30
2019-02-05T08:03:53.413Z,59.10
2019-02-05T08:06:22.852Z,59.10
2019-02-05T08:08:52.520Z,58.90
2019-02-05T08:11:21.901Z,59.00
2019-02-05T08:13:58.314Z,58.90
2019-02-05T08:16:27.763Z,59.00
2019-02-05T08:18:57.140Z,59.10
2019-02-05T08:21:26.574Z,59.00
2019-02-05T08:23:55.944Z,58.80
2019-02-05T08:26:25.427Z,58.90
2019-02-05T08:28:54.922Z,58.70
2019-02-05T08:31:24.488Z,58.60
2019-02-05T08:33:53.906Z,58.80
2019-02-05T08:36:23.286Z,58.60
2019-02-05T08:38:53.815Z,58.10
2019-02-05T08:41:23.364Z,58.10
2019-02-05T08:43:53.422Z,58.10
2019-02-05T08:46:22.890Z,58.10
2019-02-05T08:48:53.458Z,57.90
2019-02-05T08:51:22.914Z,57.90
2019-02-05T08:53:53.344Z,58.00
2019-02-05T08:56:22.771Z,58.10
2019-02-05T08:58:52.164Z,57.80
2019-02-05T09:01:21.710Z,57.90
2019-02-05T09:03:51.007Z,57.80
2019-02-05T09:06:20.511Z,57.80
2019-02-05T09:08:50.031Z,57.90
2019-02-05T09:11:19.999Z,57.80
2019-02-05T09:13:49.713Z,57.80
2019-02-05T09:16:19.197Z,57.80
2019-02-05T09:18:48.724Z,57.80
2019-02-05T09:21:18.607Z,57.70
2019-02-05T09:23:48.085Z,57.70
2019-02-05T09:26:17.541Z,57.30
2019-02-05T09:28:46.953Z,57.40
2019-02-05T09:31:16.877Z,57.60
2019-02-05T09:33:46.587Z,57.60
2019-02-05T09:36:19.625Z,57.20
2019-02-05T09:38:49.445Z,57.20
2019-02-05T09:41:18.927Z,57.00
2019-02-05T09:43:50.179Z,57.00
2019-02-05T09:46:19.757Z,56.80
2019-02-05T09:48:50.546Z,56.80
2019-02-05T09:51:20.081Z,56.70
2019-02-05T09:53:49.663Z,56.50
2019-02-05T09:56:24.505Z,56.60
2019-02-05T09:58:51.673Z,56.60
2019-02-05T10:01:21.347Z,56.50
2019-02-05T10:03:55.788Z,56.20
2019-02-05T10:06:25.522Z,56.20
2019-02-05T10:08:55.198Z,56.30
2019-02-05T10:11:26.959Z,56.10
2019-02-05T10:14:02.822Z,55.80
2019-02-05T10:16:32.425Z,55.50
2019-02-05T10:19:02.118Z,55.50
2019-02-05T10:21:31.789Z,55.70
2019-02-05T10:24:07.722Z,55.50
2019-02-05T10:26:39.319Z,55.50
2019-02-05T10:29:12.374Z,55.40
2019-02-05T10:31:44.477Z,55.20
2019-02-05T10:34:14.318Z,54.90
2019-02-05T10:36:44.600Z,54.90
2019-02-05T10:39:14.380Z,54.90
2019-02-05T10:41:44.020Z,55.00
2019-02-05T10:44:13.867Z,55.00
2019-02-05T10:46:43.307Z,55.00
2019-02-05T10:49:13.501Z,54.70
2019-02-05T10:51:42.969Z,54.60
2019-02-05T10:54:16.993Z,54.60
2019-02-05T10:56:49.356Z,54.50
2019-02-05T10:59:21.555Z,54.40
2019-02-05T11:02:08.435Z,54.30
2019-02-05T11:04:38.390Z,54.40
2019-02-05T11:07:07.899Z,54.50
2019-02-05T11:09:46.167Z,54.60
2019-02-05T11:12:26.265Z,55.40
2019-02-05T11:14:56.621Z,54.90
2019-02-05T11:17:26.337Z,55.00
2019-02-05T11:20:04.950Z,54.90
2019-02-05T11:22:37.393Z,54.70
2019-02-05T11:25:11.367Z,54.30
2019-02-05T11:27:45.907Z,54.20
2019-02-05T11:30:21.928Z,54.20
2019-02-05T11:32:52.980Z,54.00
2019-02-05T11:35:25.929Z,54.80
2019-02-05T11:37:59.135Z,54.00
2019-02-05T11:40:43.822Z,54.00
2019-02-05T11:43:16.901Z,53.90
2019-02-05T11:45:53.239Z,53.90
2019-02-05T11:48:26.466Z,53.80
2019-02-05T11:50:56.119Z,53.90
2019-02-05T11:53:26.700Z,53.90
2019-02-05T11:55:57.452Z,53.90
2019-02-05T11:58:39.000Z,53.80
2019-02-05T12:01:16.919Z,53.70
2019-02-05T12:03:49.182Z,53.80
2019-02-05T12:06:18.844Z,53.70
2019-02-05T12:08:48.348Z,53.80
2019-02-05T12:13:57.907Z,53.80
2019-02-05T12:19:02.630Z,53.90
2019-02-05T12:21:32.300Z,53.90
2019-02-05T12:24:01.792Z,53.80
2019-02-05T12:26:31.696Z,53.80
2019-02-05T12:29:01.181Z,53.80
2019-02-05T12:31:31.201Z,53.70
2019-02-05T12:34:00.746Z,54.30
2019-02-05T12:36:35.742Z,54.30
2019-02-05T12:39:08.369Z,53.70
2019-02-05T12:41:39.861Z,53.70
2019-02-05T12:44:11.437Z,53.80
2019-02-05T12:46:40.987Z,53.80
2019-02-05T12:49:10.607Z,53.80
2019-02-05T12:51:48.285Z,53.80
2019-02-05T12:54:18.021Z,53.80
2019-02-05T12:56:49.561Z,53.80
2019-02-05T12:59:24.889Z,53.80
2019-02-05T13:01:54.605Z,53.80
2019-02-05T13:04:24.165Z,53.90
2019-02-05T13:07:00.173Z,54.00
2019-02-05T13:09:29.972Z,53.80
2019-02-05T13:12:01.687Z,53.90
2019-02-05T13:14:41.137Z,54.10
2019-02-05T13:17:10.823Z,54.10
2019-02-05T13:19:46.040Z,54.20
2019-02-05T13:22:15.527Z,54.20
2019-02-05T13:24:46.021Z,54.30
2019-02-05T13:27:15.551Z,54.30
2019-02-05T13:29:45.013Z,54.30
2019-02-05T13:32:14.439Z,54.40
2019-02-05T13:34:52.849Z,54.30
2019-02-05T13:37:26.355Z,54.20
2019-02-05T13:39:55.857Z,54.30
2019-02-05T13:42:26.500Z,54.30
2019-02-05T13:44:56.156Z,54.30
2019-02-05T13:47:26.662Z,54.40
2019-02-05T13:49:56.240Z,54.50
2019-02-05T13:52:25.823Z,54.50
2019-02-05T13:54:55.510Z,54.50
2019-02-05T13:57:32.550Z,54.60
2019-02-05T14:00:12.915Z,54.60
2019-02-05T14:02:44.020Z,54.50
2019-02-05T14:05:15.930Z,54.40
2019-02-05T14:07:48.744Z,54.60
2019-02-05T14:13:43.785Z,54.60
2019-02-05T14:16:23.399Z,54.60
2019-02-05T14:19:02.538Z,54.70
2019-02-05T14:25:06.174Z,54.70
2019-02-05T14:30:35.584Z,54.80
2019-02-05T14:33:11.924Z,54.90
2019-02-05T14:35:41.783Z,54.90
2019-02-05T14:38:18.747Z,54.80
2019-02-05T14:41:06.349Z,54.80
2019-02-05T14:43:42.708Z,54.80
2019-02-05T14:46:13.368Z,54.80
2019-02-05T14:48:53.228Z,54.80
2019-02-05T14:51:34.090Z,54.90
2019-02-05T14:54:10.471Z,55.10
2019-02-05T14:57:10.338Z,55.10
2019-02-05T14:59:43.937Z,55.10
2019-02-05T15:02:21.113Z,55.20
2019-02-05T15:05:31.427Z,55.10
2019-02-05T15:08:06.008Z,55.20
2019-02-05T15:10:42.954Z,55.20
2019-02-05T15:13:15.943Z,55.30
2019-02-05T15:15:52.453Z,55.40
2019-02-05T15:18:23.925Z,55.40
2019-02-05T15:21:03.123Z,55.40
2019-02-05T15:24:07.657Z,55.30
2019-02-05T15:29:55.273Z,55.50
2019-02-05T15:33:03.065Z,55.50
2019-02-05T15:35:33.063Z,55.50
2019-02-05T15:38:02.733Z,55.60
2019-02-05T15:40:33.534Z,55.60
2019-02-05T15:43:06.169Z,55.80
2019-02-05T15:45:36.980Z,55.60
2019-02-05T15:48:13.782Z,55.60
2019-02-05T15:50:45.408Z,55.70
2019-02-05T15:53:17.828Z,55.80
2019-02-05T15:55:47.454Z,55.90
2019-02-05T15:58:17.294Z,56.10
2019-02-05T16:00:51.144Z,56.20
2019-02-05T16:03:21.347Z,56.30
2019-02-05T16:05:54.922Z,56.50
2019-02-05T16:08:31.348Z,56.30
2019-02-05T16:11:03.283Z,56.40
2019-02-05T16:13:33.924Z,56.40
2019-02-05T16:16:12.360Z,56.50
2019-02-05T16:18:55.377Z,56.40
2019-02-05T16:21:25.053Z,56.50
2019-02-05T16:23:58.022Z,56.50
2019-02-05T16:26:34.098Z,56.60
2019-02-05T16:29:10.782Z,56.50
2019-02-05T16:32:17.211Z,56.70
2019-02-05T16:38:01.638Z,56.80
2019-02-05T16:40:44.349Z,56.70
2019-02-05T16:43:14.063Z,56.70
2019-02-05T16:49:52.272Z,56.60
2019-02-05T16:52:21.917Z,56.70
2019-02-05T16:55:11.513Z,56.80
2019-02-05T17:01:58.961Z,56.80
2019-02-05T17:05:08.157Z,56.80
2019-02-05T17:07:43.271Z,57.00
2019-02-05T17:10:16.729Z,57.00
2019-02-05T17:12:47.145Z,57.00
2019-02-05T17:15:35.163Z,57.10
2019-02-05T17:18:39.197Z,57.00
2019-02-05T17:31:53.504Z,57.00
2019-02-05T17:34:28.974Z,57.20
2019-02-05T17:37:28.895Z,57.10
2019-02-05T17:40:04.328Z,57.20
2019-02-05T17:43:09.911Z,57.20
2019-02-05T17:52:12.900Z,57.10
2019-02-05T18:04:11.991Z,57.40
2019-02-05T18:06:46.102Z,57.40
2019-02-05T18:09:18.206Z,57.50
2019-02-05T18:11:47.875Z,57.40
2019-02-05T18:14:17.574Z,57.40
2019-02-05T18:16:47.472Z,57.40
2019-02-05T18:19:23.177Z,57.40
2019-02-05T18:21:52.751Z,57.40
2019-02-05T18:24:23.729Z,57.50
2019-02-05T18:26:55.195Z,57.30
2019-02-05T18:29:41.445Z,57.40
2019-02-05T18:32:19.202Z,57.40
2019-02-05T18:34:48.659Z,57.40
2019-02-05T18:37:22.694Z,57.60
2019-02-05T18:39:52.188Z,57.40
2019-02-05T18:42:22.418Z,57.40
2019-02-05T18:44:52.132Z,57.20
2019-02-05T18:47:21.693Z,57.10
2019-02-05T18:49:54.175Z,57.20
2019-02-05T18:52:25.443Z,57.20
2019-02-05T18:54:54.879Z,57.10
2019-02-05T18:57:27.090Z,57.20
2019-02-05T18:59:57.648Z,57.30
2019-02-05T19:02:27.478Z,57.40
2019-02-05T19:04:57.862Z,57.40
2019-02-05T19:07:39.705Z,57.40
2019-02-05T19:10:21.178Z,57.50
2019-02-05T19:13:07.553Z,57.60
2019-02-05T19:15:42.626Z,57.50
2019-02-05T19:18:13.082Z,57.60
2019-02-05T19:20:44.018Z,57.60
2019-02-05T19:23:55.930Z,57.70
2019-02-05T19:29:32.170Z,57.80
2019-02-05T19:32:04.095Z,57.80
2019-02-05T19:34:42.866Z,57.70
2019-02-05T19:37:15.934Z,57.80
2019-02-05T19:39:45.594Z,57.90
2019-02-05T19:42:19.688Z,57.90
2019-02-05T19:45:03.134Z,58.00
2019-02-05T19:47:35.084Z,58.00
2019-02-05T19:50:05.628Z,58.10
2019-02-05T19:52:39.750Z,58.00
2019-02-05T19:55:11.530Z,58.20
2019-02-05T19:57:41.540Z,58.10
2019-02-05T20:00:12.470Z,58.30
2019-02-05T20:02:42.578Z,58.30
2019-02-05T20:05:30.298Z,58.20
2019-02-05T20:08:17.810Z,58.20
2019-02-05T20:11:40.339Z,58.30
2019-02-05T20:14:51.741Z,58.20
2019-02-05T20:17:22.823Z,58.20
2019-02-05T20:19:53.271Z,58.90
2019-02-05T20:22:24.761Z,58.40
2019-02-05T20:25:16.352Z,58.40
2019-02-05T20:27:48.401Z,58.50
2019-02-05T20:33:50.008Z,58.50
2019-02-05T20:36:21.177Z,58.60
2019-02-05T20:38:54.598Z,58.50
2019-02-05T20:42:23.170Z,58.50
2019-02-05T20:45:37.295Z,58.60
2019-02-05T20:51:08.452Z,58.50
2019-02-05T20:53:37.910Z,58.60
2019-02-05T20:56:07.418Z,58.60
2019-02-05T20:58:37.042Z,58.70
2019-02-05T21:01:06.711Z,58.90
2019-02-05T21:03:36.356Z,58.90
2019-02-05T21:06:07.110Z,58.90
2019-02-05T21:08:54.638Z,58.90
2019-02-05T21:11:54.902Z,58.90
2019-02-05T21:14:36.742Z,59.00
2019-02-05T21:17:43.514Z,58.90
2019-02-05T21:20:38.748Z,58.90
2019-02-05T21:24:13.104Z,59.00
2019-02-05T21:26:52.292Z,58.90
2019-02-05T21:29:30.516Z,59.00
2019-02-05T21:32:23.975Z,59.10
2019-02-05T21:35:36.516Z,59.00
2019-02-05T21:38:47.273Z,59.10
2019-02-05T21:44:41.700Z,59.10
2019-02-05T21:47:17.973Z,59.10
2019-02-05T21:53:41.862Z,59.30
2019-02-05T21:56:11.311Z,59.30
2019-02-05T21:58:40.831Z,59.20
2019-02-05T22:01:10.445Z,59.30
2019-02-05T22:03:55.447Z,59.20
2019-02-05T22:06:37.987Z,59.20
2019-02-05T22:09:44.106Z,59.30
2019-02-05T22:12:26.101Z,59.30
2019-02-05T22:14:55.959Z,59.30
2019-02-05T22:20:17.278Z,59.30
2019-02-05T22:22:51.681Z,59.30
2019-02-05T22:25:34.181Z,59.30
2019-02-05T22:28:05.656Z,59.40
2019-02-05T22:30:40.583Z,59.40
2019-02-05T22:33:12.495Z,59.40
2019-02-05T22:35:46.951Z,59.50
2019-02-05T22:38:24.808Z,59.50
2019-02-05T22:40:55.918Z,59.50
2019-02-05T22:46:28.666Z,59.60
2019-02-05T22:49:03.110Z,59.60
2019-02-05T22:51:37.341Z,59.60
2019-02-05T22:54:13.814Z,59.80
2019-02-05T22:56:44.660Z,59.80
2019-02-05T22:59:20.022Z,59.90
2019-02-05T23:02:15.594Z,59.90
2019-02-05T23:05:32.535Z,59.90
2019-02-05T23:08:09.960Z,59.80
2019-02-05T23:11:30.354Z,60.00
2019-02-05T23:14:15.900Z,59.80
2019-02-05T23:16:46.566Z,59.90
2019-02-05T23:19:39.646Z,60.70
2019-02-05T23:25:02.482Z,60.10
2019-02-05T23:27:33.848Z,60.10
2019-02-05T23:30:03.273Z,60.10
2019-02-05T23:32:32.646Z,60.00
2019-02-05T23:35:02.890Z,60.10
2019-02-05T23:37:32.307Z,60.10
2019-02-05T23:40:02.132Z,60.10
2019-02-05T23:42:31.880Z,60.20
2019-02-05T23:45:01.308Z,60.10
2019-02-05T23:47:30.661Z,60.10
2019-02-05T23:50:00.186Z,60.10
2019-02-05T23:52:29.499Z,60.20
2019-02-05T23:55:05.007Z,60.20
2019-02-05T23:57:34.418Z,60.20
